createdAt,value
2022-08-07T00:00:54.978Z,13.35
2022-08-07T00:02:36.290Z,13.30
2022-08-07T00:02:54.963Z,13.31
2022-08-07T00:03:55.203Z,13.25
2022-08-07T00:04:54.988Z,13.23
2022-08-07T00:05:54.942Z,13.23
2022-08-07T00:06:54.923Z,13.20
2022-08-07T00:07:59.857Z,13.18
2022-08-07T00:08:54.938Z,13.23
2022-08-07T00:10:19.187Z,13.20
2022-08-07T00:10:57.582Z,13.22
2022-08-07T00:11:58.803Z,13.13
2022-08-07T00:12:59.747Z,13.18
2022-08-07T00:13:54.927Z,13.16
2022-08-07T00:14:54.878Z,13.15
2022-08-07T00:15:54.978Z,13.11
2022-08-07T00:16:55.071Z,13.05
2022-08-07T00:17:54.861Z,13.13
2022-08-07T00:18:54.861Z,13.00
2022-08-07T00:20:02.913Z,13.00
2022-08-07T00:20:54.843Z,12.97
2022-08-07T00:21:57.053Z,13.03
2022-08-07T00:22:54.818Z,12.91
2022-08-07T00:23:54.790Z,12.87
2022-08-07T00:24:54.825Z,12.90
2022-08-07T00:26:00.047Z,12.87
2022-08-07T00:26:59.488Z,12.83
2022-08-07T00:27:56.473Z,12.75
2022-08-07T00:28:55.704Z,12.78
2022-08-07T00:29:54.752Z,12.78
2022-08-07T00:30:54.753Z,12.76
2022-08-07T00:31:54.745Z,12.64
2022-08-07T00:32:54.727Z,12.67
2022-08-07T00:33:54.724Z,12.72
2022-08-07T00:34:54.722Z,12.72
2022-08-07T00:35:54.718Z,12.62
2022-08-07T00:36:54.700Z,12.67
2022-08-07T00:37:54.698Z,12.61
2022-08-07T00:38:54.709Z,12.57
2022-08-07T00:39:54.813Z,12.55
2022-08-07T00:40:54.654Z,12.60
2022-08-07T00:42:02.199Z,12.60
2022-08-07T00:42:54.643Z,12.57
2022-08-07T00:43:59.717Z,12.62
2022-08-07T00:44:54.663Z,12.64
2022-08-07T00:45:54.648Z,12.50
2022-08-07T00:46:54.606Z,12.57
2022-08-07T00:48:09.740Z,12.58
2022-08-07T00:48:54.607Z,12.54
2022-08-07T00:50:19.536Z,12.50
2022-08-07T00:50:54.597Z,12.58
2022-08-07T00:51:56.938Z,12.53
2022-08-07T00:52:54.607Z,12.62
2022-08-07T00:53:55.235Z,12.65
2022-08-07T00:54:54.559Z,12.64
2022-08-07T00:56:03.259Z,12.57
2022-08-07T00:56:54.563Z,12.68
2022-08-07T00:57:55.313Z,12.73
2022-08-07T00:58:54.552Z,12.72
2022-08-07T00:59:54.595Z,12.72
2022-08-07T01:00:54.535Z,12.72
2022-08-07T01:01:57.922Z,12.58
2022-08-07T01:02:54.518Z,12.57
2022-08-07T01:03:56.904Z,12.67
2022-08-07T01:04:54.506Z,12.49
2022-08-07T01:05:54.482Z,12.57
2022-08-07T01:06:54.510Z,12.55
2022-08-07T01:07:55.262Z,12.50
2022-08-07T01:08:55.742Z,12.42
2022-08-07T01:10:06.967Z,12.47
2022-08-07T01:10:56.280Z,12.32
2022-08-07T01:12:09.179Z,12.32
2022-08-07T01:12:54.845Z,12.40
2022-08-07T01:13:55.804Z,12.35
2022-08-07T01:14:57.053Z,12.35
2022-08-07T01:16:00.956Z,12.36
2022-08-07T01:16:54.389Z,12.35
2022-08-07T01:17:54.380Z,12.39
2022-08-07T01:18:54.375Z,12.32
2022-08-07T01:19:54.635Z,12.32
2022-08-07T01:20:57.377Z,12.39
2022-08-07T01:21:55.303Z,12.37
2022-08-07T01:23:09.054Z,12.32
2022-08-07T01:23:54.372Z,12.31
2022-08-07T01:24:54.315Z,12.25
2022-08-07T01:25:56.335Z,12.29
2022-08-07T01:26:54.338Z,12.29
2022-08-07T01:27:54.559Z,12.28
2022-08-07T01:28:54.291Z,12.27
2022-08-07T01:29:54.309Z,12.24
2022-08-07T01:30:54.293Z,12.22
2022-08-07T01:31:54.256Z,12.15
2022-08-07T01:32:54.267Z,12.12
2022-08-07T01:33:57.404Z,12.03
2022-08-07T01:34:54.250Z,12.04
2022-08-07T01:36:06.237Z,12.10
2022-08-07T01:36:58.245Z,11.95
2022-08-07T01:37:54.216Z,12.04
2022-08-07T01:38:54.197Z,11.99
2022-08-07T01:39:54.270Z,11.97
2022-08-07T01:40:54.187Z,11.91
2022-08-07T01:42:07.563Z,11.91
2022-08-07T01:42:58.451Z,11.90
2022-08-07T01:43:54.163Z,12.00
2022-08-07T01:44:54.158Z,12.07
2022-08-07T01:45:54.349Z,12.09
2022-08-07T01:46:54.128Z,12.04
2022-08-07T01:48:19.928Z,12.02
2022-08-07T01:48:54.118Z,12.09
2022-08-07T01:49:54.694Z,12.13
2022-08-07T01:50:55.554Z,12.09
2022-08-07T01:52:02.604Z,12.13
2022-08-07T01:52:54.967Z,12.18
2022-08-07T01:54:11.818Z,12.15
2022-08-07T01:54:54.409Z,12.20
2022-08-07T01:55:54.318Z,12.13
2022-08-07T01:56:54.342Z,12.22
2022-08-07T01:58:05.522Z,12.28
2022-08-07T01:58:54.112Z,12.28
2022-08-07T01:59:54.530Z,12.27
2022-08-07T02:01:09.348Z,12.28
2022-08-07T02:02:01.617Z,12.20
2022-08-07T02:03:18.062Z,12.24
2022-08-07T02:03:54.341Z,12.20
2022-08-07T02:04:56.650Z,12.02
2022-08-07T02:06:00.036Z,12.06
2022-08-07T02:06:54.273Z,11.95
2022-08-07T02:07:54.199Z,11.90
2022-08-07T02:08:54.297Z,11.88
2022-08-07T02:09:58.568Z,11.88
2022-08-07T02:10:55.310Z,11.84
2022-08-07T02:12:03.629Z,11.75
2022-08-07T02:12:54.333Z,11.81
2022-08-07T02:13:57.567Z,11.80
2022-08-07T02:14:54.162Z,11.80
2022-08-07T02:15:54.193Z,11.80
2022-08-07T02:16:54.007Z,11.78
2022-08-07T02:17:54.109Z,11.68
2022-08-07T02:18:53.895Z,11.73
2022-08-07T02:20:04.452Z,11.65
2022-08-07T02:20:57.397Z,11.65
2022-08-07T02:21:56.679Z,11.62
2022-08-07T02:22:55.113Z,11.62
2022-08-07T02:24:54.267Z,11.60
2022-08-07T02:26:31.695Z,11.52
2022-08-07T02:26:54.074Z,11.50
2022-08-07T02:27:53.936Z,11.50
2022-08-07T02:28:54.222Z,11.51
2022-08-07T02:29:55.042Z,11.47
2022-08-07T02:30:54.021Z,11.48
2022-08-07T02:31:54.713Z,11.50
2022-08-07T02:33:00.960Z,11.43
2022-08-07T02:34:03.207Z,11.40
2022-08-07T02:34:53.994Z,11.29
2022-08-07T02:36:29.774Z,11.37
2022-08-07T02:36:54.099Z,11.27
2022-08-07T02:37:54.084Z,11.35
2022-08-07T02:38:57.124Z,11.27
2022-08-07T02:40:29.573Z,11.32
2022-08-07T02:40:55.960Z,11.29
2022-08-07T02:41:54.314Z,11.33
2022-08-07T02:42:53.955Z,11.32
2022-08-07T02:43:53.714Z,11.29
2022-08-07T02:44:53.915Z,11.41
2022-08-07T02:46:00.420Z,11.37
2022-08-07T02:46:53.810Z,11.37
2022-08-07T02:47:53.906Z,11.43
2022-08-07T02:48:54.954Z,11.40
2022-08-07T02:49:55.894Z,11.37
2022-08-07T02:50:53.867Z,11.40
2022-08-07T02:51:53.847Z,11.37
2022-08-07T02:52:53.863Z,11.32
2022-08-07T02:53:53.872Z,11.29
2022-08-07T02:54:54.028Z,11.40
2022-08-07T02:56:04.286Z,11.43
2022-08-07T02:56:53.778Z,11.36
2022-08-07T02:57:53.560Z,11.40
2022-08-07T02:58:54.175Z,11.29
2022-08-07T03:00:00.876Z,11.29
2022-08-07T03:00:53.643Z,11.41
2022-08-07T03:01:55.228Z,11.29
2022-08-07T03:02:54.310Z,11.44
2022-08-07T03:03:53.499Z,11.36
2022-08-07T03:04:53.857Z,11.32
2022-08-07T03:05:53.887Z,11.35
2022-08-07T03:06:53.701Z,11.32
2022-08-07T03:08:04.856Z,11.35
2022-08-07T03:08:53.468Z,11.35
2022-08-07T03:09:53.488Z,11.26
2022-08-07T03:10:53.639Z,11.22
2022-08-07T03:11:57.908Z,11.27
2022-08-07T03:12:53.690Z,11.35
2022-08-07T03:13:57.500Z,11.37
2022-08-07T03:14:53.642Z,11.25
2022-08-07T03:15:58.523Z,11.37
2022-08-07T03:16:53.575Z,11.23
2022-08-07T03:17:54.381Z,11.17
2022-08-07T03:18:53.604Z,11.14
2022-08-07T03:19:55.126Z,11.12
2022-08-07T03:20:53.392Z,11.14
2022-08-07T03:21:53.588Z,11.02
2022-08-07T03:22:53.624Z,11.02
2022-08-07T03:24:17.790Z,10.94
2022-08-07T03:24:53.594Z,10.96
2022-08-07T03:25:58.286Z,10.89
2022-08-07T03:26:58.893Z,10.89
2022-08-07T03:28:08.961Z,10.86
2022-08-07T03:28:53.488Z,10.75
2022-08-07T03:29:53.524Z,10.76
2022-08-07T03:30:53.520Z,10.82
2022-08-07T03:31:53.540Z,10.76
2022-08-07T03:32:58.360Z,10.82
2022-08-07T03:33:53.553Z,10.79
2022-08-07T03:35:01.140Z,10.76
2022-08-07T03:35:53.451Z,10.76
2022-08-07T03:36:53.663Z,10.82
2022-08-07T03:37:55.193Z,10.71
2022-08-07T03:38:53.588Z,10.67
2022-08-07T03:39:59.803Z,10.68
2022-08-07T03:40:57.089Z,10.69
2022-08-07T03:41:53.437Z,10.71
2022-08-07T03:42:53.188Z,10.69
2022-08-07T03:43:57.156Z,10.72
2022-08-07T03:44:58.083Z,10.72
2022-08-07T03:45:53.150Z,10.82
2022-08-07T03:47:11.411Z,10.71
2022-08-07T03:47:53.136Z,10.75
2022-08-07T03:49:03.119Z,10.76
2022-08-07T03:49:53.482Z,10.78
2022-08-07T03:50:55.960Z,10.82
2022-08-07T03:51:56.033Z,10.76
2022-08-07T03:52:53.088Z,10.81
2022-08-07T03:54:05.587Z,10.79
2022-08-07T03:54:54.165Z,10.84
2022-08-07T03:56:03.810Z,10.79
2022-08-07T03:57:03.553Z,10.82
2022-08-07T03:59:07.272Z,10.81
2022-08-07T03:59:08.075Z,10.90
2022-08-07T04:00:01.303Z,10.82
2022-08-07T04:00:56.983Z,10.87
2022-08-07T04:01:53.106Z,10.93
2022-08-07T04:02:52.993Z,10.90
2022-08-07T04:03:55.355Z,10.97
2022-08-07T04:04:52.985Z,11.11
2022-08-07T04:05:52.983Z,11.15
2022-08-07T04:06:52.980Z,11.26
2022-08-07T04:07:52.965Z,11.33
2022-08-07T04:08:53.102Z,11.33
2022-08-07T04:09:52.945Z,11.40
2022-08-07T04:10:54.304Z,11.48
2022-08-07T04:12:25.746Z,11.47
2022-08-07T04:12:52.930Z,11.69
2022-08-07T04:14:10.055Z,11.75
2022-08-07T04:14:52.954Z,11.88
2022-08-07T04:15:52.902Z,11.88
2022-08-07T04:16:58.837Z,12.02
2022-08-07T04:18:57.653Z,12.21
2022-08-07T04:18:59.218Z,12.29
2022-08-07T04:19:54.691Z,12.29
2022-08-07T04:20:54.650Z,12.50
2022-08-07T04:22:05.422Z,12.61
2022-08-07T04:22:53.723Z,12.90
2022-08-07T04:24:03.538Z,12.91
2022-08-07T04:24:52.817Z,13.05
2022-08-07T04:25:52.816Z,13.09
2022-08-07T04:26:52.814Z,13.30
2022-08-07T04:27:59.261Z,13.23
2022-08-07T04:28:52.795Z,13.35
2022-08-07T04:30:01.990Z,13.35
2022-08-07T04:30:57.031Z,13.37
2022-08-07T04:32:03.254Z,13.23
2022-08-07T04:32:58.042Z,13.19
2022-08-07T04:33:55.165Z,13.05
2022-08-07T04:34:52.750Z,13.13
2022-08-07T04:35:53.943Z,13.13
2022-08-07T04:36:52.731Z,13.05
2022-08-07T04:38:03.520Z,13.05
2022-08-07T04:38:52.721Z,13.11
2022-08-07T04:39:52.922Z,13.04
2022-08-07T04:40:56.821Z,13.04
2022-08-07T04:41:52.688Z,12.93
2022-08-07T04:42:52.688Z,12.86
2022-08-07T04:44:09.827Z,13.04
2022-08-07T04:44:54.555Z,13.03
2022-08-07T04:46:01.581Z,13.28
2022-08-07T04:47:04.173Z,13.25
2022-08-07T04:47:57.025Z,13.05
2022-08-07T04:48:52.847Z,12.98
2022-08-07T04:50:03.888Z,12.97
2022-08-07T04:50:53.067Z,13.08
2022-08-07T04:51:52.610Z,13.05
2022-08-07T04:52:52.898Z,12.98
2022-08-07T04:54:01.617Z,12.98
2022-08-07T04:54:52.601Z,12.87
2022-08-07T04:58:13.817Z,12.94
2022-08-07T04:58:15.665Z,12.85
2022-08-07T04:58:15.732Z,12.90
2022-08-07T04:59:18.206Z,13.01
2022-08-07T05:00:11.678Z,13.22
2022-08-07T05:00:52.576Z,13.33
2022-08-07T05:01:52.544Z,13.49
2022-08-07T05:02:52.527Z,13.52
2022-08-07T05:04:07.886Z,13.59
2022-08-07T05:04:52.518Z,13.49
2022-08-07T05:05:57.263Z,13.42
2022-08-07T05:06:53.335Z,13.47
2022-08-07T05:07:52.562Z,13.39
2022-08-07T05:09:01.168Z,13.37
2022-08-07T05:09:52.473Z,13.25
2022-08-07T05:10:58.567Z,13.25
2022-08-07T05:11:58.532Z,13.20
2022-08-07T05:12:53.775Z,13.30
2022-08-07T05:14:54.298Z,13.33
2022-08-07T05:15:04.374Z,13.37
2022-08-07T05:15:53.645Z,13.35
2022-08-07T05:16:53.013Z,13.50
2022-08-07T05:18:00.806Z,13.57
2022-08-07T05:18:52.412Z,13.46
2022-08-07T05:19:52.407Z,13.35
2022-08-07T05:20:52.411Z,13.23
2022-08-07T05:22:00.873Z,13.23
2022-08-07T05:22:52.846Z,13.23
2022-08-07T05:23:52.374Z,13.28
2022-08-07T05:24:52.368Z,13.22
2022-08-07T05:26:12.872Z,13.22
2022-08-07T05:26:52.357Z,13.35
2022-08-07T05:28:16.231Z,13.57
2022-08-07T05:28:52.349Z,13.52
2022-08-07T05:29:53.763Z,13.54
2022-08-07T05:30:52.681Z,13.46
2022-08-07T05:31:52.944Z,13.59
2022-08-07T05:32:52.313Z,13.60
2022-08-07T05:34:04.283Z,13.63
2022-08-07T05:34:52.309Z,13.79
2022-08-07T05:35:52.284Z,13.92
2022-08-07T05:36:52.928Z,13.83
2022-08-07T05:38:08.828Z,13.86
2022-08-07T05:38:59.789Z,13.90
2022-08-07T05:40:16.782Z,13.87
2022-08-07T05:40:52.391Z,13.96
2022-08-07T05:42:01.880Z,13.99
2022-08-07T05:42:55.704Z,14.03
2022-08-07T05:44:11.828Z,14.17
2022-08-07T05:45:04.177Z,14.23
2022-08-07T05:45:52.236Z,14.29
2022-08-07T05:46:52.261Z,14.37
2022-08-07T05:48:01.711Z,14.44
2022-08-07T05:48:58.374Z,14.53
2022-08-07T05:49:52.238Z,14.47
2022-08-07T05:50:52.268Z,14.54
2022-08-07T05:51:52.256Z,14.60
2022-08-07T05:52:52.206Z,14.58
2022-08-07T05:54:09.581Z,14.63
2022-08-07T05:54:55.682Z,14.59
2022-08-07T05:56:03.719Z,14.58
2022-08-07T05:56:52.155Z,14.60
2022-08-07T05:57:52.226Z,14.60
2022-08-07T05:58:52.689Z,14.77
2022-08-07T05:59:57.970Z,14.91
2022-08-07T06:00:52.108Z,14.91
2022-08-07T06:01:52.334Z,15.04
2022-08-07T06:02:52.138Z,15.11
2022-08-07T06:03:56.391Z,15.22
2022-08-07T06:04:52.109Z,15.29
2022-08-07T06:05:56.595Z,15.44
2022-08-07T06:06:56.742Z,15.37
2022-08-07T06:08:13.996Z,15.42
2022-08-07T06:08:52.072Z,15.40
2022-08-07T06:10:05.751Z,15.36
2022-08-07T06:10:54.906Z,15.31
2022-08-07T06:11:52.055Z,15.33
2022-08-07T06:12:52.035Z,15.52
2022-08-07T06:14:11.547Z,15.55
2022-08-07T06:14:52.019Z,15.61
2022-08-07T06:15:52.019Z,15.70
2022-08-07T06:16:55.993Z,15.67
2022-08-07T06:17:55.142Z,15.73
2022-08-07T06:18:55.760Z,15.79
2022-08-07T06:20:03.235Z,15.86
2022-08-07T06:22:14.499Z,15.91
2022-08-07T06:22:15.555Z,15.97
2022-08-07T06:23:02.397Z,16.02
2022-08-07T06:24:45.516Z,16.09
2022-08-07T06:24:57.680Z,15.90
2022-08-07T06:25:54.656Z,15.86
2022-08-07T06:26:51.963Z,16.01
2022-08-07T06:28:01.265Z,16.09
2022-08-07T06:28:52.827Z,16.00
2022-08-07T06:29:51.941Z,16.02
2022-08-07T06:30:52.940Z,16.12
2022-08-07T06:31:51.913Z,16.12
2022-08-07T06:32:51.925Z,16.16
2022-08-07T06:33:51.899Z,16.35
2022-08-07T06:34:51.888Z,16.20
2022-08-07T06:36:13.025Z,16.24
2022-08-07T06:36:52.525Z,16.33
2022-08-07T06:37:52.845Z,16.47
2022-08-07T06:40:13.317Z,16.72
2022-08-07T06:40:16.545Z,16.74
2022-08-07T06:40:52.859Z,16.71
2022-08-07T06:42:01.819Z,16.71
2022-08-07T06:42:52.069Z,16.72
2022-08-07T06:43:59.244Z,16.86
2022-08-07T06:44:51.832Z,16.81
2022-08-07T06:45:51.843Z,16.99
2022-08-07T06:46:53.623Z,17.15
2022-08-07T06:47:58.911Z,17.30
2022-08-07T06:48:51.814Z,17.33
2022-08-07T06:49:58.517Z,17.46
2022-08-07T06:50:51.826Z,17.45
2022-08-07T06:51:51.792Z,17.63
2022-08-07T06:52:52.944Z,17.72
2022-08-07T06:55:28.351Z,17.68
2022-08-07T06:55:34.450Z,17.71
2022-08-07T06:55:53.723Z,17.82
2022-08-07T06:56:51.767Z,18.03
2022-08-07T06:57:56.320Z,18.07
2022-08-07T07:00:12.871Z,18.26
2022-08-07T07:00:13.500Z,18.15
2022-08-07T07:00:53.001Z,18.34
2022-08-07T07:01:51.786Z,18.38
2022-08-07T07:02:57.815Z,18.41
2022-08-07T07:03:55.107Z,18.56
2022-08-07T07:04:54.799Z,18.44
2022-08-07T07:06:02.996Z,18.45
2022-08-07T07:07:00.088Z,18.71
2022-08-07T07:07:58.573Z,18.78
2022-08-07T07:08:51.718Z,18.77
2022-08-07T07:09:51.727Z,18.86
2022-08-07T07:10:56.564Z,19.19
2022-08-07T07:12:08.961Z,19.24
2022-08-07T07:12:53.571Z,19.30
2022-08-07T07:13:57.790Z,19.40
2022-08-07T07:14:51.668Z,19.44
2022-08-07T07:15:51.935Z,19.49
2022-08-07T07:16:53.665Z,19.55
2022-08-07T07:17:52.338Z,19.58
2022-08-07T07:18:51.812Z,19.76
2022-08-07T07:19:55.716Z,19.89
2022-08-07T07:20:51.680Z,19.81
2022-08-07T07:22:11.716Z,19.66
2022-08-07T07:24:06.640Z,19.91
2022-08-07T07:24:08.018Z,19.76
2022-08-07T07:25:02.418Z,19.85
2022-08-07T07:26:34.045Z,19.84
2022-08-07T07:26:52.568Z,19.76
2022-08-07T07:27:58.507Z,19.92
2022-08-07T07:29:39.838Z,20.02
2022-08-07T07:30:07.582Z,20.09
2022-08-07T07:30:51.617Z,20.11
2022-08-07T07:31:51.614Z,20.28
2022-08-07T07:32:51.584Z,20.25
2022-08-07T07:33:56.440Z,20.06
2022-08-07T07:34:51.587Z,20.32
2022-08-07T07:36:04.585Z,20.34
2022-08-07T07:36:53.874Z,20.69
2022-08-07T07:37:59.303Z,20.90
2022-08-07T07:38:51.576Z,21.20
2022-08-07T07:39:54.905Z,21.17
2022-08-07T07:40:51.568Z,20.85
2022-08-07T07:42:12.886Z,20.77
2022-08-07T07:42:54.251Z,20.92
2022-08-07T07:44:17.856Z,21.00
2022-08-07T07:44:51.563Z,20.87
2022-08-07T07:46:53.604Z,20.99
2022-08-07T07:46:55.187Z,21.25
2022-08-07T07:47:53.163Z,21.36
2022-08-07T07:48:51.545Z,21.58
2022-08-07T07:50:35.718Z,21.77
2022-08-07T07:50:51.534Z,21.80
2022-08-07T07:51:58.485Z,21.98
2022-08-07T07:52:51.508Z,22.08
2022-08-07T07:53:52.786Z,22.28
2022-08-07T07:54:52.127Z,22.39
2022-08-07T07:55:57.553Z,22.47
2022-08-07T07:56:51.507Z,22.38
2022-08-07T07:57:54.080Z,22.30
2022-08-07T07:58:51.521Z,22.17
2022-08-07T07:59:54.112Z,22.28
2022-08-07T08:00:54.108Z,22.35
2022-08-07T08:02:02.946Z,22.65
2022-08-07T08:03:04.605Z,22.48
2022-08-07T08:04:10.905Z,22.53
2022-08-07T08:04:51.540Z,22.39
2022-08-07T08:05:55.147Z,22.41
2022-08-07T08:06:53.171Z,22.41
2022-08-07T08:08:00.898Z,22.63
2022-08-07T08:08:51.465Z,22.69
2022-08-07T08:09:51.973Z,22.73
2022-08-07T08:10:51.460Z,22.83
2022-08-07T08:12:02.003Z,22.90
2022-08-07T08:12:58.968Z,22.88
2022-08-07T08:13:54.365Z,22.90
2022-08-07T08:14:51.466Z,23.10
2022-08-07T08:15:59.057Z,23.18
2022-08-07T08:16:51.436Z,23.12
2022-08-07T08:17:57.270Z,22.93
2022-08-07T08:18:51.432Z,22.91
2022-08-07T08:20:19.263Z,23.05
2022-08-07T08:20:51.445Z,22.94
2022-08-07T08:21:55.775Z,23.03
2022-08-07T08:22:55.690Z,23.21
2022-08-07T08:23:51.419Z,23.12
2022-08-07T08:25:04.456Z,23.44
2022-08-07T08:25:51.431Z,23.62
2022-08-07T08:26:51.422Z,23.86
2022-08-07T08:27:56.652Z,23.81
2022-08-07T08:28:51.403Z,23.50
2022-08-07T08:29:54.594Z,23.48
2022-08-07T08:30:55.700Z,23.40
2022-08-07T08:32:17.366Z,23.59
2022-08-07T08:32:51.406Z,23.73
2022-08-07T08:33:55.677Z,23.63
2022-08-07T08:34:51.404Z,23.71
2022-08-07T08:35:51.430Z,23.98
2022-08-07T08:36:56.199Z,24.21
2022-08-07T08:38:00.934Z,24.54
2022-08-07T08:38:51.374Z,24.77
2022-08-07T08:39:54.963Z,25.04
2022-08-07T08:40:51.388Z,24.91
2022-08-07T08:41:58.314Z,24.99
2022-08-07T08:42:51.559Z,25.13
2022-08-07T08:43:56.047Z,24.92
2022-08-07T08:44:51.367Z,24.65
2022-08-07T08:45:59.102Z,24.58
2022-08-07T08:46:51.362Z,24.24
2022-08-07T08:47:52.635Z,24.14
2022-08-07T08:48:51.362Z,24.30
2022-08-07T08:50:04.908Z,24.60
2022-08-07T08:50:51.732Z,24.93
2022-08-07T08:52:13.695Z,24.95
2022-08-07T08:52:54.081Z,24.88
2022-08-07T08:53:51.369Z,25.04
2022-08-07T08:54:51.341Z,25.29
2022-08-07T08:55:54.674Z,25.54
2022-08-07T08:56:51.384Z,25.69
2022-08-07T08:57:51.342Z,26.02
2022-08-07T08:58:54.529Z,26.29
2022-08-07T08:59:51.342Z,26.45
2022-08-07T09:00:51.763Z,26.37
2022-08-07T09:01:51.471Z,26.02
2022-08-07T09:02:52.548Z,25.69
2022-08-07T09:03:52.648Z,25.54
2022-08-07T09:04:51.324Z,25.59
2022-08-07T09:05:51.339Z,25.54
2022-08-07T09:06:51.329Z,25.59
2022-08-07T09:07:58.138Z,25.68
2022-08-07T09:08:51.321Z,26.02
2022-08-07T09:09:57.218Z,26.53
2022-08-07T09:10:51.315Z,26.92
2022-08-07T09:11:55.006Z,26.97
2022-08-07T09:12:53.575Z,27.29
2022-08-07T09:13:51.312Z,27.33
2022-08-07T09:14:51.309Z,27.48
2022-08-07T09:16:23.932Z,27.73
2022-08-07T09:16:51.328Z,27.86
2022-08-07T09:17:59.425Z,27.85
2022-08-07T09:18:53.410Z,27.51
2022-08-07T09:19:55.348Z,27.07
2022-08-07T09:20:58.555Z,26.63
2022-08-07T09:22:10.122Z,25.80
2022-08-07T09:24:30.717Z,25.31
2022-08-07T09:24:32.256Z,25.25
2022-08-07T09:25:00.635Z,25.38
2022-08-07T09:25:54.338Z,25.65
2022-08-07T09:26:51.312Z,25.77
2022-08-07T09:28:00.458Z,26.00
2022-08-07T09:30:03.472Z,26.37
2022-08-07T09:30:07.305Z,26.16
2022-08-07T09:30:54.714Z,25.75
2022-08-07T09:31:51.324Z,25.25
2022-08-07T09:32:51.290Z,24.73
2022-08-07T09:33:57.463Z,24.57
2022-08-07T09:34:53.959Z,24.17
2022-08-07T09:36:03.325Z,24.58
2022-08-07T09:36:51.281Z,24.73
2022-08-07T09:37:53.964Z,24.50
2022-08-07T09:38:54.005Z,24.21
2022-08-07T09:39:53.611Z,24.66
2022-08-07T09:40:51.280Z,24.91
2022-08-07T09:41:58.886Z,24.96
2022-08-07T09:42:51.485Z,25.46
2022-08-07T09:44:06.265Z,25.93
2022-08-07T09:47:37.204Z,26.80
2022-08-07T09:47:50.259Z,26.47
2022-08-07T09:47:50.388Z,26.89
2022-08-07T09:48:01.866Z,26.80
2022-08-07T09:50:01.910Z,26.23
2022-08-07T09:50:02.460Z,26.00
2022-08-07T09:50:51.473Z,26.28
2022-08-07T09:52:09.787Z,26.36
2022-08-07T09:52:51.808Z,26.10
2022-08-07T09:53:57.068Z,26.09
2022-08-07T09:54:51.266Z,25.73
2022-08-07T09:56:03.631Z,25.29
2022-08-07T09:56:51.441Z,25.03
2022-08-07T09:57:51.253Z,24.98
2022-08-07T09:58:51.399Z,24.95
2022-08-07T10:00:00.754Z,24.92
2022-08-07T10:00:51.243Z,24.93
2022-08-07T10:01:54.348Z,24.98
2022-08-07T10:02:55.343Z,25.21
2022-08-07T10:04:04.769Z,25.48
2022-08-07T10:04:53.298Z,25.33
2022-08-07T10:05:59.492Z,25.21
2022-08-07T10:06:55.555Z,25.10
2022-08-07T10:07:53.681Z,25.25
2022-08-07T10:08:51.334Z,25.16
2022-08-07T10:10:00.889Z,25.13
2022-08-07T10:11:59.753Z,24.98
2022-08-07T10:12:01.635Z,25.18
2022-08-07T10:12:53.122Z,25.43
2022-08-07T10:14:01.226Z,25.62
2022-08-07T10:14:54.989Z,25.66
2022-08-07T10:15:51.208Z,25.85
2022-08-07T10:16:51.212Z,26.05
2022-08-07T10:18:01.209Z,25.54
2022-08-07T10:18:51.555Z,25.58
2022-08-07T10:19:51.211Z,25.78
2022-08-07T10:20:51.393Z,25.93
2022-08-07T10:22:15.384Z,25.68
2022-08-07T10:22:51.265Z,25.55
2022-08-07T10:24:05.621Z,25.62
2022-08-07T10:24:51.198Z,25.47
2022-08-07T10:25:52.991Z,25.36
2022-08-07T10:26:51.823Z,25.51
2022-08-07T10:27:51.671Z,25.66
2022-08-07T10:28:51.195Z,25.95
2022-08-07T10:29:51.420Z,26.41
2022-08-07T10:30:51.181Z,26.77
2022-08-07T10:31:51.177Z,26.80
2022-08-07T10:32:52.661Z,26.78
2022-08-07T10:34:06.525Z,26.88
2022-08-07T10:34:51.170Z,26.03
2022-08-07T10:35:55.205Z,25.75
2022-08-07T10:36:51.171Z,25.63
2022-08-07T10:38:09.883Z,25.77
2022-08-07T10:38:51.516Z,25.93
2022-08-07T10:40:03.322Z,26.25
2022-08-07T10:40:51.169Z,26.55
2022-08-07T10:42:00.426Z,26.80
2022-08-07T10:42:51.169Z,26.92
2022-08-07T10:43:51.180Z,27.21
2022-08-07T10:44:51.161Z,27.21
2022-08-07T10:45:57.697Z,26.90
2022-08-07T10:46:51.156Z,26.68
2022-08-07T10:47:53.711Z,25.87
2022-08-07T10:48:51.150Z,25.65
2022-08-07T10:49:51.898Z,25.60
2022-08-07T10:50:51.167Z,25.68
2022-08-07T10:52:01.590Z,25.66
2022-08-07T10:52:51.475Z,25.33
2022-08-07T10:53:51.140Z,25.38
2022-08-07T10:55:00.807Z,25.18
2022-08-07T10:55:53.436Z,25.23
2022-08-07T10:56:51.134Z,25.03
2022-08-07T10:57:56.130Z,25.32
2022-08-07T10:58:59.654Z,25.17
2022-08-07T10:59:51.134Z,25.11
2022-08-07T11:00:55.961Z,25.01
2022-08-07T11:02:05.272Z,25.11
2022-08-07T11:02:53.625Z,25.14
2022-08-07T11:03:52.516Z,24.99
2022-08-07T11:04:51.207Z,24.96
2022-08-07T11:05:51.410Z,25.11
2022-08-07T11:06:51.128Z,25.28
2022-08-07T11:07:59.609Z,25.23
2022-08-07T11:08:51.126Z,25.01
2022-08-07T11:10:07.979Z,25.06
2022-08-07T11:10:57.863Z,25.03
2022-08-07T11:11:51.893Z,24.89
2022-08-07T11:13:01.656Z,24.93
2022-08-07T11:14:44.639Z,24.95
2022-08-07T11:14:59.777Z,24.91
2022-08-07T11:15:54.628Z,24.98
2022-08-07T11:16:52.758Z,25.10
2022-08-07T11:17:53.982Z,25.23
2022-08-07T11:18:51.732Z,25.35
2022-08-07T11:19:51.090Z,25.38
2022-08-07T11:20:51.080Z,25.33
2022-08-07T11:21:51.083Z,25.38
2022-08-07T11:22:51.078Z,25.35
2022-08-07T11:23:51.078Z,25.59
2022-08-07T11:24:51.785Z,25.65
2022-08-07T11:25:51.061Z,25.59
2022-08-07T11:26:51.077Z,25.46
2022-08-07T11:28:02.060Z,25.50
2022-08-07T11:28:55.400Z,25.40
2022-08-07T11:29:53.819Z,25.36
2022-08-07T11:30:51.081Z,25.54
2022-08-07T11:31:51.850Z,25.55
2022-08-07T11:32:52.761Z,25.36
2022-08-07T11:33:59.852Z,25.50
2022-08-07T11:34:51.058Z,25.36
2022-08-07T11:35:59.702Z,25.38
2022-08-07T11:36:51.055Z,25.65
2022-08-07T11:37:58.196Z,25.65
2022-08-07T11:38:51.040Z,25.75
2022-08-07T11:39:59.912Z,25.91
2022-08-07T11:40:51.035Z,26.09
2022-08-07T11:42:01.595Z,26.36
2022-08-07T11:42:51.177Z,26.41
2022-08-07T11:44:10.858Z,26.40
2022-08-07T11:44:52.570Z,26.53
2022-08-07T11:45:53.573Z,26.28
2022-08-07T11:46:51.070Z,26.40
2022-08-07T11:47:56.662Z,26.09
2022-08-07T11:49:28.662Z,25.84
2022-08-07T11:50:31.263Z,25.80
2022-08-07T11:50:57.268Z,25.77
2022-08-07T11:51:51.017Z,25.73
2022-08-07T11:52:51.238Z,25.83
2022-08-07T11:54:00.686Z,26.06
2022-08-07T11:54:54.746Z,26.29
2022-08-07T11:56:24.785Z,26.51
2022-08-07T11:56:53.153Z,26.77
2022-08-07T11:57:59.886Z,26.59
2022-08-07T11:58:50.991Z,26.29
2022-08-07T12:00:11.412Z,26.26
2022-08-07T12:01:00.205Z,25.95
2022-08-07T12:02:00.012Z,25.90
2022-08-07T12:02:52.759Z,26.00
2022-08-07T12:03:51.143Z,25.75
2022-08-07T12:04:50.977Z,25.84
2022-08-07T12:05:51.020Z,25.88
2022-08-07T12:07:01.104Z,26.06
2022-08-07T12:07:53.774Z,26.02
2022-08-07T12:08:52.484Z,26.00
2022-08-07T12:09:51.032Z,26.00
2022-08-07T12:11:08.347Z,26.15
2022-08-07T12:12:09.251Z,26.38
2022-08-07T12:12:50.999Z,26.22
2022-08-07T12:13:50.961Z,26.22
2022-08-07T12:14:55.409Z,26.22
2022-08-07T12:16:06.867Z,26.10
2022-08-07T12:16:50.952Z,26.31
2022-08-07T12:17:58.809Z,26.44
2022-08-07T12:18:51.182Z,26.63
2022-08-07T12:19:56.744Z,26.73
2022-08-07T12:20:50.963Z,26.80
2022-08-07T12:21:55.757Z,26.95
2022-08-07T12:22:58.439Z,26.90
2022-08-07T12:24:07.053Z,27.02
2022-08-07T12:24:52.564Z,27.12
2022-08-07T12:26:22.394Z,26.95
2022-08-07T12:26:51.524Z,26.48
2022-08-07T12:28:08.979Z,26.09
2022-08-07T12:28:53.847Z,26.02
2022-08-07T12:29:52.468Z,25.84
2022-08-07T12:30:53.079Z,25.99
2022-08-07T12:32:02.115Z,26.23
2022-08-07T12:32:50.927Z,26.56
2022-08-07T12:33:56.213Z,26.02
2022-08-07T12:34:55.687Z,25.99
2022-08-07T12:35:57.672Z,25.90
2022-08-07T12:36:50.926Z,25.87
2022-08-07T12:38:09.261Z,25.84
2022-08-07T12:38:57.277Z,25.81
2022-08-07T12:39:51.625Z,25.73
2022-08-07T12:40:51.171Z,25.63
2022-08-07T12:41:52.072Z,25.66
2022-08-07T12:42:52.660Z,25.65
2022-08-07T12:44:01.800Z,25.66
2022-08-07T12:44:50.899Z,25.59
2022-08-07T12:45:52.623Z,25.72
2022-08-07T12:46:50.978Z,25.78
2022-08-07T12:47:50.905Z,25.99
2022-08-07T12:48:52.540Z,26.07
2022-08-07T12:49:51.586Z,26.19
2022-08-07T12:50:50.911Z,26.43
2022-08-07T12:52:14.580Z,26.09
2022-08-07T12:52:52.957Z,26.19
2022-08-07T12:54:03.448Z,26.19